Time;durP1;ratioP1;P1;durP2;ratioP2;P2;SDS_P1;SDS_P2;PMS_P1;PMS_P2;Temp;Humidity;BMP_temperature;BMP_pressure;BME280_temperature;BME280_humidity;BME280_pressure;Samples;Min_cycle;Max_cycle;Signal;HPM_P1;HPM_P2
2022/05/21 00:01:59;;;;;;;;;6.67;5.00;;;;;17.01;100.00;101845.94;5075227;28;45407;-80
2022/05/21 00:04:25;;;;;;;;;4.33;4.00;;;;;16.86;100.00;101817.69;5074785;28;45528;-80
2022/05/21 00:06:51;;;;;;;;;4.00;4.00;;;;;17.09;100.00;101853.13;5075320;28;45728;-80
2022/05/21 00:09:18;;;;;;;;;6.00;6.00;;;;;17.13;100.00;101850.78;5075193;28;45514;-80
2022/05/21 00:11:44;;;;;;;;;7.67;5.00;;;;;16.96;100.00;101818.06;5074570;28;46213;-80
2022/05/21 00:14:10;;;;;;;;;5.00;3.33;;;;;17.05;100.00;101833.34;5075123;28;45734;-81
2022/05/21 00:16:36;;;;;;;;;4.00;3.00;;;;;17.15;100.00;101848.63;5053779;28;45603;-81
2022/05/21 00:19:03;;;;;;;;;5.00;4.00;;;;;17.14;100.00;101850.56;5074147;28;45721;-81
2022/05/21 00:21:28;;;;;;;;;5.00;5.00;;;;;16.98;100.00;101826.16;5075374;28;45488;-82
2022/05/21 00:23:54;;;;;;;;;7.33;4.67;;;;;16.94;100.00;101817.44;5074577;28;45456;-81
2022/05/21 00:26:21;;;;;;;;;5.33;4.33;;;;;17.07;100.00;101853.34;5060102;28;45427;-80
2022/05/21 00:28:49;;;;;;;;;8.33;5.33;;;;;17.03;100.00;101846.56;5077204;28;47133;-81
2022/05/21 00:31:17;;;;;;;;;4.67;4.00;;;;;17.01;100.00;101858.97;5077337;28;45426;-80
2022/05/21 00:33:43;;;;;;;;;4.00;4.00;;;;;16.88;100.00;101844.09;5075387;28;45463;-82
2022/05/21 00:36:09;;;;;;;;;5.00;4.00;;;;;16.95;100.00;101863.47;5065952;28;45531;-81
2022/05/21 00:38:36;;;;;;;;;5.50;4.50;;;;;16.91;100.00;101865.00;5036821;28;46223;-80
2022/05/21 00:41:02;;;;;;;;;4.67;3.00;;;;;16.87;100.00;101870.13;5036926;28;47186;-81
2022/05/21 00:43:34;;;;;;;;;5.00;2.00;;;;;16.83;100.00;101863.31;5055568;28;45312;-80
2022/05/21 00:46:00;;;;;;;;;3.00;3.00;;;;;16.71;100.00;101849.31;5040561;28;45363;-80
2022/05/21 00:48:26;;;;;;;;;3.67;2.00;;;;;16.62;100.00;101839.56;5040428;28;45513;-80
2022/05/21 00:50:52;;;;;;;;;3.33;3.00;;;;;16.60;100.00;101841.69;5072518;28;48119;-81
2022/05/21 00:53:18;;;;;;;;;4.00;3.00;;;;;16.68;100.00;101855.31;5059243;28;45433;-81
2022/05/21 00:55:45;;;;;;;;;3.00;3.00;;;;;16.65;100.00;101858.53;5060277;28;45831;-81
2022/05/21 01:01:00;;;;;;;;;3.00;3.00;;;;;16.49;100.00;101850.72;5055566;28;45525;-81
2022/05/21 01:03:29;;;;;;;;;3.00;3.00;;;;;16.54;100.00;101859.22;5055379;28;45815;-81
2022/05/21 01:05:54;;;;;;;;;3.67;3.67;;;;;16.53;100.00;101852.00;5040213;28;45411;-82
2022/05/21 01:08:20;;;;;;;;;4.00;4.00;;;;;16.44;100.00;101843.09;5061279;28;45399;-81
2022/05/21 01:10:50;;;;;;;;;5.00;5.00;;;;;16.30;100.00;101824.84;5061376;28;45367;-82
2022/05/21 01:13:19;;;;;;;;;4.33;3.00;;;;;16.42;100.00;101846.09;5042600;28;45771;-80
2022/05/21 01:15:51;;;;;;;;;3.00;2.67;;;;;16.40;100.00;101859.28;5057582;28;45714;-81
2022/05/21 01:18:16;;;;;;;;;3.00;3.00;;;;;16.35;100.00;101842.50;5055026;28;45418;-80
2022/05/21 01:20:52;;;;;;;;;2.67;2.67;;;;;16.32;100.00;101842.09;5053414;28;45729;-81
2022/05/21 01:23:19;;;;;;;;;2.67;2.00;;;;;16.34;100.00;101849.09;5054315;28;45757;-81
2022/05/21 01:25:46;;;;;;;;;6.67;3.67;;;;;16.20;100.00;101837.25;5038268;28;45415;-81
2022/05/21 01:28:15;;;;;;;;;3.33;3.33;;;;;16.23;100.00;101833.19;5041864;28;45851;-82
2022/05/21 01:30:47;;;;;;;;;3.33;3.33;;;;;16.29;100.00;101836.97;5071165;28;45520;-81
2022/05/21 01:33:16;;;;;;;;;4.00;3.00;;;;;16.29;100.00;101837.84;5080579;28;45374;-82
2022/05/21 01:35:43;;;;;;;;;4.33;3.00;;;;;16.35;100.00;101849.97;5071718;28;44840;-81
2022/05/21 01:38:11;;;;;;;;;3.00;3.00;;;;;16.32;100.00;101848.47;5077829;28;45729;-81
2022/05/21 01:40:37;;;;;;;;;5.00;5.00;;;;;16.32;100.00;101847.63;5052878;28;46808;-82
2022/05/21 01:45:51;;;;;;;;;6.67;2.33;;;;;16.31;100.00;101841.22;5075405;28;45405;-82
2022/05/21 01:48:19;;;;;;;;;3.67;3.33;;;;;16.39;100.00;101857.59;5059274;28;45576;-80
2022/05/21 01:50:45;;;;;;;;;3.00;2.33;;;;;16.42;100.00;101851.63;5074513;28;45916;-81
2022/05/21 01:53:11;;;;;;;;;4.00;4.00;;;;;16.37;100.00;101847.81;5047712;28;45406;-80
2022/05/21 01:55:37;;;;;;;;;2.67;2.67;;;;;16.47;100.00;101850.13;5053949;28;45781;-82
2022/05/21 01:58:03;;;;;;;;;2.00;2.00;;;;;16.49;100.00;101851.56;5035067;28;46419;-81
2022/05/21 02:00:28;;;;;;;;;2.00;2.00;;;;;16.53;100.00;101858.38;5054248;28;45414;-82
2022/05/21 02:02:54;;;;;;;;;4.00;3.00;;;;;16.37;100.00;101820.13;5035074;28;45758;-81
2022/05/21 02:05:19;;;;;;;;;5.00;2.00;;;;;16.46;100.00;101829.03;5053103;28;45729;-80
2022/05/21 02:07:45;;;;;;;;;2.00;2.00;;;;;16.56;100.00;101840.47;5052413;28;45657;-81
2022/05/21 02:10:10;;;;;;;;;3.33;2.33;;;;;16.58;100.00;101843.84;5061022;28;46219;-82
2022/05/21 02:12:36;;;;;;;;;4.00;4.00;;;;;16.57;100.00;101839.38;5073330;28;45503;-80
2022/05/21 02:15:02;;;;;;;;;3.00;3.00;;;;;16.46;100.00;101823.50;5056078;28;45763;-80
2022/05/21 02:17:28;;;;;;;;;5.33;3.33;;;;;16.56;100.00;101834.94;5074867;28;45723;-81
2022/05/21 02:19:53;;;;;;;;;3.00;3.00;;;;;16.63;100.00;101845.97;5060625;28;47352;-81
2022/05/21 02:22:19;;;;;;;;;4.00;4.00;;;;;16.62;100.00;101845.13;5077137;28;45535;-80
2022/05/21 02:24:44;;;;;;;;;1.67;1.67;;;;;16.61;100.00;101848.13;5078505;28;45373;-81
2022/05/21 02:27:14;;;;;;;;;3.00;3.00;;;;;16.64;100.00;101854.03;5060173;28;45862;-79
2022/05/21 02:29:41;;;;;;;;;2.67;2.00;;;;;16.64;100.00;101851.28;5053231;28;46863;-81
2022/05/21 02:32:08;;;;;;;;;3.00;2.00;;;;;16.65;100.00;101852.97;5053513;28;45594;-80
2022/05/21 02:34:33;;;;;;;;;4.67;2.67;;;;;16.63;100.00;101857.91;5061823;28;45635;-82
2022/05/21 02:39:43;;;;;;;;;4.00;2.67;;;;;16.44;100.00;101815.41;5072408;28;45465;-80
2022/05/21 02:44:54;;;;;;;;;2.67;2.00;;;;;16.62;100.00;101850.66;5073117;28;45572;-81
2022/05/21 02:47:19;;;;;;;;;2.67;2.00;;;;;16.59;100.00;101846.41;5054363;28;45432;-80
2022/05/21 02:49:45;;;;;;;;;4.00;4.00;;;;;16.44;100.00;101820.06;5053812;28;46105;-81
2022/05/21 02:52:10;;;;;;;;;7.67;4.00;;;;;16.59;100.00;101840.88;5072120;28;45742;-79
2022/05/21 02:54:35;;;;;;;;;4.33;3.33;;;;;16.57;100.00;101847.69;5072048;28;45446;-79
2022/05/21 02:57:01;;;;;;;;;4.00;3.33;;;;;16.48;100.00;101846.25;5056288;28;46225;-81
2022/05/21 02:59:29;;;;;;;;;2.67;2.00;;;;;16.50;100.00;101844.97;5073960;28;45906;-79
2022/05/21 03:01:55;;;;;;;;;3.67;2.67;;;;;16.50;100.00;101850.50;5055924;28;45741;-78
2022/05/21 03:04:21;;;;;;;;;5.33;4.00;;;;;16.51;100.00;101848.59;5073295;28;45828;-79
2022/05/21 03:06:46;;;;;;;;;3.33;2.67;;;;;16.49;100.00;101847.97;5070046;28;45902;-78
2022/05/21 03:11:56;;;;;;;;;2.67;2.33;;;;;16.45;100.00;101855.00;5052306;28;45813;-80
2022/05/21 03:14:21;;;;;;;;;3.67;3.33;;;;;16.38;100.00;101852.28;5052223;28;45465;-80
2022/05/21 03:16:46;;;;;;;;;4.00;3.00;;;;;16.35;100.00;101850.81;5052397;28;45388;-79
2022/05/21 03:19:12;;;;;;;;;2.00;1.00;;;;;16.22;100.00;101825.94;5052680;28;45458;-80
2022/05/21 03:21:40;;;;;;;;;5.00;2.00;;;;;16.32;100.00;101834.63;5052983;28;45730;-80
2022/05/21 03:24:05;;;;;;;;;2.33;2.33;;;;;16.27;100.00;101826.13;5054127;28;45428;-80
2022/05/21 03:26:31;;;;;;;;;2.00;2.00;;;;;16.45;100.00;101855.00;5054275;28;45772;-81
2022/05/21 03:28:57;;;;;;;;;3.33;2.33;;;;;16.36;100.00;101835.03;5054994;28;45409;-80
2022/05/21 03:31:23;;;;;;;;;3.00;3.00;;;;;16.48;100.00;101851.78;5073573;28;45796;-81
2022/05/21 03:33:48;;;;;;;;;3.00;3.00;;;;;16.56;100.00;101862.63;5077083;28;45386;-80
2022/05/21 03:36:14;;;;;;;;;4.00;4.00;;;;;16.58;100.00;101860.47;5058531;28;45894;-81
2022/05/21 03:38:40;;;;;;;;;7.33;3.00;;;;;16.65;100.00;101860.44;5058485;28;48179;-79
2022/05/21 03:41:05;;;;;;;;;3.00;3.00;;;;;16.56;100.00;101843.25;5074990;28;45566;-78
2022/05/21 03:43:31;;;;;;;;;2.67;2.67;;;;;16.67;100.00;101847.22;5075103;28;45609;-79
2022/05/21 03:45:56;;;;;;;;;4.00;4.00;;;;;16.69;100.00;101845.06;5075341;28;45910;-79
2022/05/21 03:48:22;;;;;;;;;3.00;3.00;;;;;16.79;100.00;101855.66;5057505;28;45743;-77
2022/05/21 03:50:50;;;;;;;;;1.67;1.67;;;;;16.80;100.00;101861.00;5075151;28;45368;-77
2022/05/21 03:53:16;;;;;;;;;3.00;3.00;;;;;16.81;100.00;101859.06;5075056;28;46070;-78
2022/05/21 03:55:44;;;;;;;;;3.67;3.00;;;;;16.80;100.00;101863.75;5056396;28;46106;-81
2022/05/21 03:58:09;;;;;;;;;2.00;2.00;;;;;16.83;100.00;101865.25;5056377;28;45532;-79
2022/05/21 04:00:38;;;;;;;;;4.33;3.67;;;;;16.82;100.00;101866.31;5073091;28;45456;-81
2022/05/21 04:03:04;;;;;;;;;2.00;2.00;;;;;16.69;100.00;101851.47;5065223;28;45677;-80
2022/05/21 04:05:29;;;;;;;;;7.67;3.00;;;;;16.77;100.00;101865.03;5076555;28;45383;-81
2022/05/21 04:07:55;;;;;;;;;3.00;2.00;;;;;16.66;100.00;101842.75;5056805;28;45461;-80
2022/05/21 04:10:21;;;;;;;;;4.00;2.00;;;;;16.88;100.00;101868.22;5076633;28;45755;-81
2022/05/21 04:12:46;;;;;;;;;6.00;3.00;;;;;16.92;100.00;101863.94;5058434;28;45532;-80
2022/05/21 04:15:12;;;;;;;;;6.00;3.33;;;;;16.74;100.00;101828.63;5077259;28;45533;-81
2022/05/21 04:17:38;;;;;;;;;3.33;2.33;;;;;16.88;100.00;101851.59;5059527;28;46238;-81
2022/05/21 04:20:07;;;;;;;;;4.33;1.67;;;;;17.00;100.00;101863.63;5060833;28;45559;-80
2022/05/21 04:22:33;;;;;;;;;1.00;1.00;;;;;16.93;100.00;101862.84;5066257;28;45429;-80
2022/05/21 04:24:58;;;;;;;;;5.33;3.00;;;;;17.06;100.00;101872.97;5065436;28;45744;-79
2022/05/21 04:27:25;;;;;;;;;2.33;2.33;;;;;17.06;100.00;101873.81;5056072;28;47267;-80
2022/05/21 04:29:50;;;;;;;;;4.33;3.00;;;;;17.06;100.00;101859.13;5070437;28;45748;-79
2022/05/21 04:32:16;;;;;;;;;2.33;2.33;;;;;17.15;100.00;101877.16;5056340;28;45735;-77
2022/05/21 04:34:41;;;;;;;;;3.00;2.00;;;;;17.20;100.00;101874.59;5048986;28;45522;-80
2022/05/21 04:37:07;;;;;;;;;3.33;2.00;;;;;17.25;100.00;101871.97;5060314;28;45537;-77
2022/05/21 04:39:33;;;;;;;;;5.33;3.00;;;;;17.27;100.00;101857.88;5059851;28;46021;-79
2022/05/21 04:42:00;;;;;;;;;3.00;3.00;;;;;17.35;100.00;101853.97;5054432;28;45428;-79
2022/05/21 04:44:31;;;;;;;;;2.33;2.33;;;;;17.28;100.00;101832.72;5062907;28;45474;-82
2022/05/21 04:46:59;;;;;;;;;2.33;2.33;;;;;17.38;100.00;101848.84;5072776;28;46342;-82
2022/05/21 04:49:24;;;;;;;;;3.00;3.00;;;;;17.52;100.00;101857.03;5061824;28;45508;-79
2022/05/21 04:51:50;;;;;;;;;5.67;5.00;;;;;17.58;100.00;101853.34;5058925;28;45846;-81
2022/05/21 04:54:16;;;;;;;;;4.33;4.00;;;;;17.67;100.00;101848.34;5054131;28;45482;-79
2022/05/21 04:56:41;;;;;;;;;5.33;3.67;;;;;17.74;100.00;101844.44;5058389;28;45505;-81
2022/05/21 04:59:11;;;;;;;;;3.67;3.67;;;;;17.97;100.00;101852.09;5057369;28;45419;-81
2022/05/21 05:01:38;;;;;;;;;1.67;1.67;;;;;18.17;100.00;101854.63;5059515;27;45752;-80
2022/05/21 05:04:04;;;;;;;;;4.00;4.00;;;;;18.68;100.00;101862.69;5066664;27;45797;-80
2022/05/21 05:06:30;;;;;;;;;3.33;3.33;;;;;19.49;100.00;101863.16;5072067;27;45546;-79
2022/05/21 05:08:56;;;;;;;;;5.33;4.00;;;;;20.20;100.00;101842.75;5071559;27;45713;-82
2022/05/21 05:11:21;;;;;;;;;7.33;3.67;;;;;20.85;100.00;101838.75;5073172;27;45553;-83
2022/05/21 05:13:47;;;;;;;;;6.00;4.00;;;;;21.58;100.00;101847.22;5064925;27;45902;-80
2022/05/21 05:16:15;;;;;;;;;5.00;3.33;;;;;22.35;100.00;101848.28;5073775;27;45859;-81
2022/05/21 05:18:41;;;;;;;;;4.33;3.67;;;;;23.17;100.00;101841.84;5076827;27;45927;-82
2022/05/21 05:21:06;;;;;;;;;5.00;4.00;;;;;23.79;100.00;101848.75;5076392;27;45996;-80
2022/05/21 05:23:32;;;;;;;;;5.67;4.67;;;;;24.42;100.00;101845.94;5074255;27;45707;-85
2022/05/21 05:26:00;;;;;;;;;3.00;3.00;;;;;24.83;100.00;101809.59;5077042;27;45812;-81
2022/05/21 05:28:27;;;;;;;;;4.00;3.00;;;;;25.40;100.00;101848.91;5071097;27;45643;-83
2022/05/21 05:30:53;;;;;;;;;6.00;5.00;;;;;25.82;100.00;101846.88;5069564;27;45773;-84
2022/05/21 05:33:20;;;;;;;;;3.67;3.67;;;;;26.43;100.00;101841.00;5051920;28;47504;-83
2022/05/21 05:35:52;;;;;;;;;3.00;2.67;;;;;27.03;100.00;101837.25;5065253;27;47364;-81
2022/05/21 05:38:19;;;;;;;;;2.33;2.33;;;;;27.13;96.11;101816.63;5060348;27;45882;-83
2022/05/21 05:40:46;;;;;;;;;5.00;4.33;;;;;27.55;94.94;101829.22;5056121;28;45815;-81
2022/05/21 05:43:15;;;;;;;;;3.00;3.00;;;;;27.58;94.08;101825.78;5050557;28;45843;-82
2022/05/21 05:45:41;;;;;;;;;3.00;3.00;;;;;27.57;91.88;101834.53;5048541;28;46355;-80
2022/05/21 05:48:07;;;;;;;;;4.33;3.33;;;;;27.94;89.40;101828.19;5049407;28;45423;-82
2022/05/21 05:50:33;;;;;;;;;5.00;4.00;;;;;28.40;83.60;101837.22;5062384;28;45300;-80
2022/05/21 05:53:04;;;;;;;;;2.33;2.00;;;;;28.93;80.83;101842.66;5050870;28;45423;-82
2022/05/21 05:55:31;;;;;;;;;1.50;1.50;;;;;29.21;78.81;101835.16;5043033;28;46518;-83
2022/05/21 05:57:57;;;;;;;;;9.67;8.00;;;;;29.34;78.67;101836.34;5047629;28;45501;-83
2022/05/21 06:00:23;;;;;;;;;2.33;2.00;;;;;30.01;75.07;101845.56;5061986;27;45536;-83
2022/05/21 06:02:58;;;;;;;;;2.25;2.00;;;;;30.57;71.22;101846.31;5044772;28;45808;-83
2022/05/21 06:05:25;;;;;;;;;3.25;1.75;;;;;31.09;68.42;101846.78;5042890;28;48194;-84
2022/05/21 06:07:54;;;;;;;;;1.75;1.75;;;;;30.73;68.65;101850.47;5050183;28;45834;-82
2022/05/21 06:10:27;;;;;;;;;4.75;3.00;;;;;30.26;70.33;101836.50;5055410;28;45548;-82
2022/05/21 06:12:55;;;;;;;;;4.00;3.00;;;;;30.65;70.93;101834.25;5055572;28;45359;-83
2022/05/21 06:15:21;;;;;;;;;5.75;2.25;;;;;31.28;68.65;101825.91;5054873;27;46924;-85
2022/05/21 06:17:49;;;;;;;;;2.00;2.00;;;;;32.28;64.80;101835.06;5046862;28;45768;-82
2022/05/21 06:20:17;;;;;;;;;4.00;2.25;;;;;33.31;61.79;101834.56;5056670;27;45494;-82
2022/05/21 06:22:44;;;;;;;;;3.00;3.00;;;;;34.02;57.63;101850.22;5056283;28;46394;-83
2022/05/21 06:25:12;;;;;;;;;3.25;3.25;;;;;33.60;55.14;101848.84;5048967;28;46529;-82
2022/05/21 06:27:37;;;;;;;;;3.50;2.00;;;;;33.24;55.75;101844.44;5061660;27;45876;-84
2022/05/21 06:30:04;;;;;;;;;3.00;3.00;;;;;33.27;58.28;101848.63;5066331;28;45539;-85
2022/05/21 06:32:30;;;;;;;;;3.00;2.00;;;;;33.25;58.89;101840.44;5053889;27;45612;-84
2022/05/21 06:34:57;;;;;;;;;3.00;3.00;;;;;33.73;58.83;101837.63;5052163;28;45464;-83
2022/05/21 06:37:22;;;;;;;;;4.75;3.00;;;;;34.17;56.78;101841.09;5030488;28;45794;-83
2022/05/21 06:39:48;;;;;;;;;4.00;3.75;;;;;34.76;52.50;101845.91;5028927;28;45550;-82
2022/05/21 06:42:16;;;;;;;;;2.50;2.25;;;;;34.75;51.59;101835.66;5031776;28;45506;-81
2022/05/21 06:44:42;;;;;;;;;1.50;1.50;;;;;34.81;48.32;101833.47;5038703;28;45512;-86
2022/05/21 06:47:12;;;;;;;;;2.50;2.50;;;;;34.71;49.85;101836.72;5049223;28;45615;-87
2022/05/21 06:49:37;;;;;;;;;3.00;2.00;;;;;34.78;49.95;101831.31;5030064;28;45618;-86
2022/05/21 06:52:04;;;;;;;;;2.75;2.75;;;;;34.66;50.70;101830.03;5037502;28;45626;-82
2022/05/21 06:54:29;;;;;;;;;4.00;2.00;;;;;34.44;48.85;101834.06;5036527;28;45473;-82
2022/05/21 06:56:55;;;;;;;;;2.00;2.00;;;;;34.88;49.65;101847.16;5036731;28;45508;-85
2022/05/21 06:59:21;;;;;;;;;2.50;2.50;;;;;35.39;46.25;101838.44;5036839;28;45501;-81
2022/05/21 07:01:48;;;;;;;;;4.50;2.25;;;;;35.77;45.82;101848.75;5035271;28;45569;-85
2022/05/21 07:04:14;;;;;;;;;2.25;2.00;;;;;36.38;43.78;101834.47;5042111;28;45445;-83
2022/05/21 07:09:25;;;;;;;;;1.00;1.00;;;;;37.32;37.00;101848.69;5041097;28;45651;-81
2022/05/21 07:11:51;;;;;;;;;1.25;1.25;;;;;37.52;34.46;101838.19;5031168;28;44934;-82
2022/05/21 07:14:35;;;;;;;;;4.00;2.00;;;;;37.74;34.56;101816.72;5040975;28;46524;-82
2022/05/21 07:17:01;;;;;;;;;1.50;1.50;;;;;38.07;30.98;101854.72;5039729;28;45478;-83
2022/05/21 07:19:28;;;;;;;;;1.00;1.00;;;;;38.27;32.29;101847.88;5036391;28;45486;-82
2022/05/21 07:21:53;;;;;;;;;2.00;2.00;;;;;38.56;31.93;101819.03;5028957;28;45487;-83
2022/05/21 07:24:19;;;;;;;;;3.00;2.00;;;;;39.48;31.88;101835.63;5017251;28;47293;-82
2022/05/21 07:26:46;;;;;;;;;2.50;2.00;;;;;40.34;29.53;101847.75;5035448;28;45517;-82
2022/05/21 07:29:12;;;;;;;;;2.00;2.00;;;;;40.71;27.87;101824.88;5019937;28;45812;-81
2022/05/21 07:31:38;;;;;;;;;1.00;1.00;;;;;41.22;27.72;101842.75;5018939;28;45469;-82
2022/05/21 07:34:05;;;;;;;;;2.00;1.00;;;;;41.70;25.26;101844.88;5017428;28;45704;-82
2022/05/21 07:36:30;;;;;;;;;1.25;1.25;;;;;42.28;24.77;101844.09;5028458;28;45534;-81
2022/05/21 07:38:56;;;;;;;;;1.00;1.00;;;;;43.01;23.60;101851.91;5038977;28;45459;-84
2022/05/21 07:41:21;;;;;;;;;1.50;1.50;;;;;43.37;21.76;101851.97;5039207;28;45629;-83
2022/05/21 07:43:47;;;;;;;;;2.50;1.50;;;;;43.17;21.44;101848.63;5041921;28;45297;-83
2022/05/21 07:46:12;;;;;;;;;4.67;3.67;;;;;42.92;22.28;101824.63;5058242;28;45686;-83
2022/05/21 07:48:38;;;;;;;;;1.50;1.00;;;;;42.90;22.31;101853.06;5057503;28;45533;-84
2022/05/21 07:51:06;;;;;;;;;1.00;1.00;;;;;42.73;23.21;101828.69;5058289;28;45473;-80
2022/05/21 07:53:44;;;;;;;;;2.67;1.33;;;;;42.95;22.66;101839.06;5058845;28;46496;-84
2022/05/21 07:56:11;;;;;;;;;10.67;10.00;;;;;43.42;21.32;101836.34;5059254;28;45753;-82
2022/05/21 07:58:39;;;;;;;;;5.00;5.00;;;;;43.53;20.69;101842.94;5060420;28;45729;-84
2022/05/21 08:01:04;;;;;;;;;4.67;4.67;;;;;43.21;20.34;101846.59;5055640;28;45676;-82
2022/05/21 08:03:30;;;;;;;;;5.33;5.00;;;;;43.30;21.15;101834.63;5056706;28;47006;-83
2022/05/21 08:06:05;;;;;;;;;4.00;4.00;;;;;43.54;21.02;101838.81;5057405;28;45421;-83
2022/05/21 08:08:31;;;;;;;;;7.00;5.33;;;;;43.63;20.07;101834.66;5058586;28;45522;-83
2022/05/21 08:10:57;;;;;;;;;4.50;4.50;;;;;43.47;20.60;101804.13;5056351;28;45941;-82
2022/05/21 08:13:22;;;;;;;;;2.00;1.00;;;;;43.89;20.30;101845.03;5057303;28;46073;-83
2022/05/21 08:15:49;;;;;;;;;6.75;3.50;;;;;44.28;20.26;101825.97;5056685;28;45425;-84
2022/05/21 08:18:15;;;;;;;;;9.33;7.67;;;;;44.73;20.33;101826.22;5056458;28;45437;-82
2022/05/21 08:20:41;;;;;;;;;4.00;2.00;;;;;44.96;19.69;101822.81;5055243;28;45906;-82
2022/05/21 08:28:47;;;;;;;;;7.67;7.00;;;;;46.57;19.29;101830.50;5058574;28;45840;-82
2022/05/21 08:31:13;;;;;;;;;8.33;7.00;;;;;46.52;18.28;101789.09;5057176;28;45854;-85
2022/05/21 08:33:39;;;;;;;;;2.00;0.67;;;;;46.66;17.52;101811.31;5058342;28;45871;-85
2022/05/21 08:36:05;;;;;;;;;7.00;6.00;;;;;46.85;17.54;101823.50;5068009;28;45464;-83
2022/05/21 08:38:30;;;;;;;;;2.00;2.00;;;;;46.89;17.51;101812.66;5079380;28;45401;-83
2022/05/21 08:41:03;;;;;;;;;2.00;2.00;;;;;46.50;17.60;101805.28;5094460;27;46012;-82
2022/05/21 08:44:05;;;;;;;;;2.33;2.33;;;;;47.02;18.28;101822.44;5061615;28;47114;-82
2022/05/21 08:46:56;;;;;;;;;3.00;3.00;;;;;47.81;17.60;101822.44;5040602;28;45335;-81
2022/05/21 08:49:41;;;;;;;;;1.00;1.00;;;;;48.39;16.64;101807.59;5058275;28;45474;-82
2022/05/21 08:52:27;;;;;;;;;0.00;0.00;;;;;49.22;15.55;101809.50;5055942;28;45934;-82
2022/05/21 08:54:55;;;;;;;;;0.00;0.00;;;;;49.74;14.95;101818.63;5073318;28;48199;-84
2022/05/21 08:57:39;;;;;;;;;0.00;0.00;;;;;50.22;14.87;101813.94;5040052;28;45761;-82
2022/05/21 09:00:13;;;;;;;;;2.33;1.00;;;;;50.33;15.00;101807.81;5058143;28;45549;-81
2022/05/21 09:02:46;;;;;;;;;0.00;0.00;;;;;50.64;14.26;101798.56;5058628;28;45798;-85
2022/05/21 09:05:15;;;;;;;;;2.67;0.00;;;;;50.89;14.13;101794.84;5022634;28;45555;-83
2022/05/21 09:08:11;;;;;;;;;1.00;1.00;;;;;51.35;14.10;101807.09;5039594;28;45513;-84
2022/05/21 09:11:01;;;;;;;;;1.00;1.00;;;;;51.76;14.41;101801.53;5064785;28;45483;-85
2022/05/21 09:14:00;;;;;;;;;0.00;0.00;;;;;52.11;14.05;101794.84;5062220;28;45790;-85
2022/05/21 09:19:11;;;;;;;;;0.33;0.00;;;;;53.28;12.94;101797.25;5067151;28;45841;-86
2022/05/21 09:21:46;;;;;;;;;0.00;0.00;;;;;53.51;12.73;101780.38;5058149;28;45649;-82
2022/05/21 09:24:32;;;;;;;;;1.00;1.00;;;;;53.79;12.49;101787.09;5054114;28;46540;-85
2022/05/21 09:26:58;;;;;;;;;1.33;0.00;;;;;54.17;12.84;101767.34;5074951;28;45587;-83
2022/05/21 09:29:26;;;;;;;;;2.33;0.33;;;;;54.39;12.08;101778.91;5060888;28;45429;-84
2022/05/21 09:31:54;;;;;;;;;1.00;1.00;;;;;54.40;12.05;101762.91;5041160;28;45769;-86
2022/05/21 09:34:28;;;;;;;;;0.67;0.67;;;;;54.83;12.45;101752.00;5057356;28;45767;-82
2022/05/21 09:36:56;;;;;;;;;0.00;0.00;;;;;54.97;11.23;101764.31;5065908;28;46382;-83
2022/05/21 09:39:32;;;;;;;;;0.67;0.67;;;;;55.14;12.54;101771.41;5058318;28;45824;-83
2022/05/21 09:45:32;;;;;;;;;0.00;0.00;;;;;56.50;11.65;101756.50;5077126;28;45512;-82
2022/05/21 09:48:04;;;;;;;;;0.33;0.00;;;;;56.81;11.00;101766.94;5077522;28;45445;-83
2022/05/21 09:50:41;;;;;;;;;0.00;0.00;;;;;56.74;11.11;101750.47;5077007;28;45340;-82
2022/05/21 09:53:25;;;;;;;;;3.00;1.00;;;;;56.80;10.72;101740.91;5077033;28;45525;-83
2022/05/21 09:56:30;;;;;;;;;4.33;3.00;;;;;57.01;11.12;101762.41;5059474;28;45524;-83
2022/05/21 09:59:14;;;;;;;;;0.33;0.33;;;;;56.74;10.63;101758.50;5072548;28;46437;-82
2022/05/21 10:01:45;;;;;;;;;2.00;2.00;;;;;56.96;10.75;101757.25;5057819;28;45422;-84
2022/05/21 10:04:17;;;;;;;;;3.33;2.33;;;;;57.21;10.95;101741.81;5076029;28;45407;-83
2022/05/21 10:06:52;;;;;;;;;1.00;1.00;;;;;56.80;11.18;101738.78;5059057;28;45765;-83
2022/05/21 10:12:22;;;;;;;;;3.00;3.00;;;;;57.34;10.54;101738.47;5077531;28;45362;-83
2022/05/21 10:14:59;;;;;;;;;2.00;2.00;;;;;57.19;10.04;101720.84;5076698;28;45555;-84
2022/05/21 10:17:51;;;;;;;;;2.67;2.67;;;;;56.98;10.41;101728.06;5074571;28;45474;-83
2022/05/21 10:20:38;;;;;;;;;2.00;1.00;;;;;56.88;10.56;101727.34;5049152;28;45700;-89
2022/05/21 10:23:29;;;;;;;;;4.00;1.00;;;;;56.78;10.75;101729.63;5074142;28;45791;-82
2022/05/21 10:26:29;;;;;;;;;1.00;1.00;;;;;56.63;11.50;101740.66;5059438;28;45361;-86
2022/05/21 10:29:14;;;;;;;;;2.00;2.00;;;;;56.25;11.26;101734.34;5064487;28;44916;-87
2022/05/21 10:31:48;;;;;;;;;9.00;7.00;;;;;55.84;11.48;101737.09;5063738;28;45973;-84
2022/05/21 10:34:21;;;;;;;;;2.00;2.00;;;;;55.00;12.17;101731.81;5070016;27;45631;-84
2022/05/21 10:37:22;;;;;;;;;1.00;1.00;;;;;54.27;11.72;101683.00;5044729;28;45954;-84
2022/05/21 10:40:19;;;;;;;;;1.00;1.00;;;;;53.99;12.46;101724.13;5082626;28;46032;-84
2022/05/21 10:42:50;;;;;;;;;1.67;1.00;;;;;53.99;11.91;101721.19;5073893;27;46347;-87
2022/05/21 10:45:29;;;;;;;;;0.33;0.33;;;;;53.33;12.52;101699.03;5072694;28;45532;-83
2022/05/21 10:48:21;;;;;;;;;1.00;1.00;;;;;52.75;12.35;101722.03;5080277;27;45582;-82
2022/05/21 10:51:11;;;;;;;;;1.00;1.00;;;;;52.18;13.29;101733.09;5053418;28;45997;-84
2022/05/21 10:54:14;;;;;;;;;0.67;0.67;;;;;51.98;13.46;101716.72;5060965;28;46648;-86
2022/05/21 10:57:08;;;;;;;;;1.00;1.00;;;;;51.97;13.13;101718.00;5076994;28;46022;-83
2022/05/21 11:00:11;;;;;;;;;0.00;0.00;;;;;51.51;13.30;101708.84;5063337;28;46000;-82
2022/05/21 11:03:07;;;;;;;;;4.00;1.00;;;;;51.13;14.04;101707.66;5064409;28;45525;-83
2022/05/21 11:05:49;;;;;;;;;1.67;1.67;;;;;50.22;14.38;101682.63;5071926;27;46118;-82
2022/05/21 11:08:24;;;;;;;;;1.00;1.00;;;;;49.87;14.20;101687.41;5064003;28;45423;-84
2022/05/21 11:11:04;;;;;;;;;1.00;1.00;;;;;49.06;15.11;101664.59;5043117;28;45482;-83
2022/05/21 11:14:06;;;;;;;;;1.00;1.00;;;;;48.60;15.59;101692.81;5059051;28;45875;-83
2022/05/21 11:16:43;;;;;;;;;1.00;1.00;;;;;47.72;16.38;101686.38;5050277;28;47922;-86
2022/05/21 11:19:13;;;;;;;;;2.00;2.00;;;;;46.60;16.55;101672.94;5067387;28;45553;-84
2022/05/21 11:21:53;;;;;;;;;1.33;1.33;;;;;45.17;18.00;101662.59;5061043;28;45444;-83
2022/05/21 11:24:33;;;;;;;;;1.00;1.00;;;;;44.13;19.11;101660.34;5080741;28;45362;-83
2022/05/21 11:27:06;;;;;;;;;1.67;1.67;;;;;43.06;20.07;101673.75;5078492;28;45622;-83
2022/05/21 11:29:47;;;;;;;;;1.33;1.00;;;;;41.98;21.79;101662.72;5066920;28;45507;-82
2022/05/21 11:37:58;;;;;;;;;3.00;2.00;;;;;39.44;26.74;101680.56;5074164;28;45966;-76
2022/05/21 11:41:24;;;;;;;;;2.00;2.00;;;;;38.71;28.09;101676.81;5056436;28;45917;-82
2022/05/21 11:43:50;;;;;;;;;1.00;1.00;;;;;38.03;29.05;101662.72;5075456;28;45399;-77
2022/05/21 11:46:16;;;;;;;;;1.00;1.00;;;;;37.32;30.64;101656.97;5074947;28;45395;-79
2022/05/21 11:48:42;;;;;;;;;2.00;0.33;;;;;36.44;34.10;101659.91;5076940;28;45805;-80
2022/05/21 11:51:25;;;;;;;;;1.00;1.00;;;;;35.60;35.30;101655.72;5074378;28;45430;-80
2022/05/21 11:53:51;;;;;;;;;1.75;1.75;;;;;34.88;39.06;101648.44;5058326;28;45450;-82
2022/05/21 11:56:17;;;;;;;;;2.33;2.33;;;;;34.46;41.25;101648.56;5077523;28;45806;-80
2022/05/21 11:58:58;;;;;;;;;2.00;1.00;;;;;34.05;42.32;101655.97;5077068;28;46100;-81
2022/05/21 12:01:39;;;;;;;;;2.00;2.00;;;;;33.43;42.84;101613.72;5049478;28;46101;-79
2022/05/21 12:04:07;;;;;;;;;3.67;2.67;;;;;33.23;46.36;101623.84;5038011;28;45756;-78
2022/05/21 12:06:40;;;;;;;;;2.33;1.00;;;;;33.02;48.18;101642.84;5053445;28;45451;-78
2022/05/21 12:09:34;;;;;;;;;2.33;2.33;;;;;32.56;49.36;101643.28;5053129;28;46367;-79
2022/05/21 12:12:25;;;;;;;;;3.00;2.00;;;;;32.14;51.21;101631.69;5036580;28;45775;-78
2022/05/21 12:15:13;;;;;;;;;1.00;1.00;;;;;31.80;53.23;101624.78;5080277;27;45530;-79